createdAt,value
2023-01-08T00:02:09.822Z,9.96
2023-01-08T00:07:09.847Z,10.04
2023-01-08T00:12:09.664Z,9.79
2023-01-08T00:17:09.630Z,9.53
2023-01-08T00:24:34.609Z,9.45
2023-01-08T00:58:39.412Z,9.52
2023-01-08T01:16:44.746Z,9.50
2023-01-08T01:21:44.391Z,9.46
2023-01-08T01:26:44.103Z,9.57
2023-01-08T01:31:44.166Z,9.52
2023-01-08T01:36:44.165Z,9.52
2023-01-08T01:41:43.818Z,9.58
2023-01-08T01:46:43.928Z,9.63
2023-01-08T01:51:43.669Z,9.27
2023-01-08T01:56:43.846Z,9.06
2023-01-08T02:01:43.893Z,9.23
2023-01-08T02:06:47.225Z,9.21
2023-01-08T02:11:43.952Z,9.38
2023-01-08T02:16:43.556Z,9.50
2023-01-08T02:21:43.288Z,9.88
2023-01-08T02:26:43.244Z,9.94
2023-01-08T02:31:43.408Z,9.58
2023-01-08T02:36:43.175Z,9.63
2023-01-08T02:41:43.300Z,9.50
2023-01-08T02:46:43.119Z,9.50
2023-01-08T02:51:42.993Z,9.24
2023-01-08T02:56:42.940Z,9.05
2023-01-08T03:01:42.871Z,8.97
2023-01-08T03:06:45.858Z,9.24
2023-01-08T03:11:42.636Z,8.94
2023-01-08T03:16:42.756Z,9.35
2023-01-08T03:38:49.323Z,8.60
2023-01-08T04:16:45.388Z,8.62
2023-01-08T04:21:44.592Z,8.90
2023-01-08T04:26:44.465Z,9.58
2023-01-08T04:33:35.664Z,9.32
2023-01-08T04:38:43.205Z,9.12
2023-01-08T04:43:35.511Z,8.87
2023-01-08T04:48:35.348Z,8.57
2023-01-08T04:53:35.270Z,8.87
2023-01-08T04:58:35.306Z,8.79
2023-01-08T05:03:35.271Z,8.42
2023-01-08T05:08:35.264Z,8.93
2023-01-08T05:13:35.043Z,9.45
2023-01-08T05:18:35.418Z,9.09
2023-01-08T05:23:37.910Z,8.63
2023-01-08T05:28:34.891Z,8.81
2023-01-08T05:33:34.843Z,8.44
2023-01-08T05:57:30.830Z,9.06
2023-01-08T06:02:31.627Z,9.28
2023-01-08T06:07:30.008Z,9.60
2023-01-08T06:12:29.830Z,9.57
2023-01-08T06:17:29.763Z,9.91
2023-01-08T06:22:29.646Z,10.06
2023-01-08T06:27:30.227Z,10.09
2023-01-08T06:32:29.611Z,10.34
2023-01-08T06:40:12.714Z,10.42
2023-01-08T06:45:12.609Z,10.40
2023-01-08T06:50:12.718Z,10.21
2023-01-08T06:55:12.570Z,10.34
2023-01-08T07:00:13.086Z,10.40
2023-01-08T07:05:12.244Z,10.53
2023-01-08T07:10:12.420Z,10.53
2023-01-08T07:15:12.109Z,10.58
2023-01-08T07:20:12.208Z,10.80
2023-01-08T07:25:11.939Z,10.42
2023-01-08T07:30:28.927Z,10.53
2023-01-08T07:35:12.877Z,10.28
2023-01-08T07:40:11.873Z,10.74
2023-01-08T07:45:12.093Z,10.30
2023-01-08T07:50:11.694Z,10.51
2023-01-08T07:55:11.701Z,10.60
2023-01-08T08:00:11.841Z,10.73
2023-01-08T08:07:12.629Z,10.73
2023-01-08T08:12:12.428Z,10.68
2023-01-08T08:20:43.654Z,10.80
2023-01-08T08:25:42.941Z,10.44
2023-01-08T08:30:46.388Z,10.51
2023-01-08T08:39:31.934Z,10.37
2023-01-08T08:47:00.695Z,10.70
2023-01-08T08:52:00.299Z,10.95
2023-01-08T08:57:12.900Z,10.98
2023-01-08T09:15:28.613Z,11.65
2023-01-08T09:22:19.083Z,11.54
2023-01-08T09:29:26.337Z,11.64
2023-01-08T09:34:29.048Z,11.59
2023-01-08T09:39:27.183Z,11.49
2023-01-08T09:44:26.113Z,11.20
2023-01-08T09:49:25.902Z,11.56
2023-01-08T09:54:26.202Z,11.70
2023-01-08T09:59:25.900Z,11.74
2023-01-08T10:04:25.696Z,11.61
2023-01-08T10:09:25.676Z,11.68
2023-01-08T10:14:25.598Z,11.78
2023-01-08T10:19:28.618Z,12.15
2023-01-08T10:24:25.599Z,11.85
2023-01-08T10:29:25.324Z,11.50
2023-01-08T10:34:25.261Z,12.31
2023-01-08T10:59:55.485Z,12.37
2023-01-08T11:04:55.287Z,12.66
2023-01-08T11:09:55.126Z,13.20
2023-01-08T11:39:11.613Z,12.54
2023-01-08T11:44:11.699Z,12.66
2023-01-08T11:49:11.475Z,12.79
2023-01-08T11:54:13.632Z,13.03
2023-01-08T11:59:11.337Z,12.88
2023-01-08T12:05:29.036Z,12.59
2023-01-08T12:10:28.878Z,12.29
2023-01-08T12:15:28.908Z,12.60
2023-01-08T12:20:28.725Z,12.96
2023-01-08T12:25:28.503Z,12.82
2023-01-08T12:30:28.507Z,13.04
2023-01-08T12:35:28.500Z,12.79
2023-01-08T12:40:28.311Z,13.09
2023-01-08T12:45:28.601Z,12.60
2023-01-08T12:52:00.200Z,12.79
2023-01-08T12:57:07.760Z,13.09
2023-01-08T13:02:00.324Z,12.87
2023-01-08T13:07:00.200Z,12.30
2023-01-08T13:12:00.077Z,12.02
2023-01-08T13:17:07.508Z,12.24
2023-01-08T13:26:45.417Z,11.96
2023-01-08T13:33:02.116Z,11.93
2023-01-08T13:38:01.940Z,12.01
2023-01-08T13:43:01.876Z,12.02
2023-01-08T13:48:01.890Z,11.93
2023-01-08T13:53:01.874Z,12.11
2023-01-08T13:58:01.784Z,12.04
2023-01-08T14:03:01.658Z,12.26
2023-01-08T14:08:01.461Z,12.57
2023-01-08T14:14:19.800Z,12.57
2023-01-08T14:19:19.815Z,12.49
2023-01-08T14:24:19.824Z,11.59
2023-01-08T14:30:38.965Z,12.49
2023-01-08T14:35:38.587Z,12.23
2023-01-08T14:40:38.752Z,12.09
2023-01-08T14:47:39.965Z,12.29
2023-01-08T14:52:39.695Z,12.30
2023-01-08T14:57:39.674Z,11.75
2023-01-08T15:02:39.742Z,11.90
2023-01-08T15:07:39.642Z,12.42
2023-01-08T15:12:39.394Z,11.96
2023-01-08T15:17:39.571Z,11.99
2023-01-08T15:22:50.113Z,11.83
2023-01-08T15:27:46.619Z,11.86
2023-01-08T15:33:57.340Z,11.96
2023-01-08T15:38:57.111Z,11.94
2023-01-08T15:44:04.805Z,11.87
2023-01-08T15:49:03.924Z,12.06
2023-01-08T15:53:56.936Z,11.62
2023-01-08T15:58:56.857Z,11.39
2023-01-08T16:03:56.758Z,11.44
2023-01-08T16:15:05.881Z,10.70
2023-01-08T16:20:05.433Z,10.92
2023-01-08T16:25:05.594Z,10.95
2023-01-08T16:31:30.531Z,11.09
2023-01-08T16:36:30.527Z,11.24
2023-01-08T16:41:30.167Z,10.91
2023-01-08T16:46:30.221Z,11.03
2023-01-08T16:51:30.164Z,10.89
2023-01-08T17:03:51.959Z,11.01
2023-01-08T17:09:06.199Z,11.44
2023-01-08T17:17:28.308Z,11.16
2023-01-08T18:11:49.437Z,10.37
2023-01-08T18:16:56.358Z,10.91
2023-01-08T18:23:38.749Z,10.62
2023-01-08T18:48:37.090Z,10.24
2023-01-08T18:53:44.482Z,10.62
2023-01-08T18:58:43.833Z,10.62
2023-01-08T19:04:57.643Z,10.68
2023-01-08T19:09:57.901Z,10.37
2023-01-08T19:14:58.083Z,10.32
2023-01-08T19:19:57.419Z,10.06
2023-01-08T19:24:57.537Z,10.18
2023-01-08T19:29:57.267Z,10.15
2023-01-08T19:34:57.516Z,10.17
2023-01-08T19:39:57.125Z,10.00
2023-01-08T19:44:57.118Z,9.99
2023-01-08T19:49:57.031Z,9.79
2023-01-08T19:55:00.130Z,9.79
2023-01-08T19:59:57.040Z,9.61
2023-01-08T20:04:57.060Z,9.82
2023-01-08T20:09:56.751Z,9.43
2023-01-08T20:15:05.266Z,9.68
2023-01-08T20:19:56.835Z,9.34
2023-01-08T20:24:58.464Z,9.23
2023-01-08T20:29:56.508Z,9.28
2023-01-08T20:34:56.475Z,9.16
2023-01-08T20:39:56.573Z,9.38
2023-01-08T20:44:56.723Z,9.38
2023-01-08T20:49:56.329Z,9.38
2023-01-08T20:54:59.206Z,9.42
2023-01-08T20:59:56.272Z,9.18
2023-01-08T21:04:56.223Z,9.23
2023-01-08T21:09:56.065Z,9.24
2023-01-08T21:14:55.965Z,9.18
2023-01-08T21:19:55.902Z,9.04
2023-01-08T21:24:56.677Z,9.15
2023-01-08T21:29:55.741Z,9.35
2023-01-08T21:34:55.741Z,9.02
2023-01-08T21:39:55.678Z,9.13
2023-01-08T21:44:55.593Z,9.05
2023-01-08T21:49:55.474Z,9.15
2023-01-08T21:54:58.503Z,9.20
2023-01-08T21:59:55.383Z,8.65
2023-01-08T22:04:55.394Z,8.99
2023-01-08T22:09:55.178Z,8.84
2023-01-08T22:14:55.300Z,8.97
2023-01-08T22:19:55.119Z,9.12
2023-01-08T22:24:55.146Z,8.91
2023-01-08T22:29:54.948Z,8.84
2023-01-08T22:34:55.195Z,8.87
2023-01-08T22:39:54.855Z,9.20
2023-01-08T22:44:54.801Z,9.04
2023-01-08T22:49:54.762Z,9.38
2023-01-08T22:54:57.763Z,9.15
2023-01-08T23:00:02.219Z,9.70
2023-01-08T23:04:54.719Z,9.82
2023-01-08T23:09:54.589Z,9.60
2023-01-08T23:14:54.548Z,9.57
2023-01-08T23:20:01.971Z,9.81
2023-01-08T23:25:01.710Z,9.96
2023-01-08T23:30:02.627Z,9.70
2023-01-08T23:34:54.208Z,9.24
2023-01-08T23:39:54.184Z,9.40
2023-01-08T23:44:54.183Z,9.56
2023-01-08T23:49:54.176Z,9.83
2023-01-08T23:54:56.909Z,9.93
2023-01-08T23:59:53.824Z,9.53
